createdAt,value
2022-10-24T00:01:16.651Z,59.85
2022-10-24T00:03:43.571Z,59.60
2022-10-24T00:06:11.380Z,59.91
2022-10-24T00:08:38.891Z,59.85
2022-10-24T00:11:14.723Z,59.81
2022-10-24T00:13:41.939Z,59.90
2022-10-24T00:16:09.227Z,59.77
2022-10-24T00:18:35.988Z,59.79
2022-10-24T00:21:03.271Z,59.85
2022-10-24T00:23:30.034Z,59.86
2022-10-24T00:25:56.910Z,59.80
2022-10-24T00:28:23.727Z,59.70
2022-10-24T00:30:53.317Z,60.04
2022-10-24T00:33:20.205Z,59.74
2022-10-24T00:35:46.780Z,59.92
2022-10-24T00:38:13.571Z,59.92
2022-10-24T00:40:40.623Z,60.05
2022-10-24T00:43:14.891Z,59.94
2022-10-24T00:45:48.435Z,59.96
2022-10-24T00:48:35.086Z,59.91
2022-10-24T00:51:11.184Z,59.89
2022-10-24T00:53:43.633Z,60.08
2022-10-24T00:56:13.003Z,59.91
2022-10-24T00:58:43.345Z,60.10
2022-10-24T01:01:10.770Z,60.13
2022-10-24T01:03:38.155Z,59.91
2022-10-24T01:06:44.269Z,60.02
2022-10-24T01:09:47.566Z,59.93
2022-10-24T01:12:39.558Z,60.14
2022-10-24T01:15:47.942Z,60.08
2022-10-24T01:18:28.417Z,60.05
2022-10-24T01:21:24.969Z,60.19
2022-10-24T01:24:17.370Z,60.09
2022-10-24T01:27:12.290Z,60.12
2022-10-24T01:29:51.109Z,60.32
2022-10-24T01:33:10.430Z,60.24
2022-10-24T01:36:00.226Z,60.13
2022-10-24T01:38:39.018Z,60.00
2022-10-24T01:41:10.062Z,60.18
2022-10-24T01:43:43.010Z,60.01
2022-10-24T01:46:15.547Z,60.21
2022-10-24T01:48:49.295Z,60.26
2022-10-24T01:51:20.078Z,60.04
2022-10-24T01:53:48.323Z,60.17
2022-10-24T01:56:15.207Z,60.28
2022-10-24T01:58:41.787Z,60.20
2022-10-24T02:01:14.073Z,60.06
2022-10-24T02:04:00.999Z,60.19
2022-10-24T02:06:34.538Z,60.35
2022-10-24T02:09:07.688Z,60.12
2022-10-24T02:11:35.461Z,60.32
2022-10-24T02:14:10.567Z,60.28
2022-10-24T02:16:37.581Z,60.28
2022-10-24T02:19:05.041Z,60.42
2022-10-24T02:21:44.921Z,60.24
2022-10-24T02:24:21.936Z,60.28
2022-10-24T02:27:16.725Z,60.14
2022-10-24T02:30:12.618Z,60.34
2022-10-24T02:32:46.746Z,60.35
2022-10-24T02:35:16.438Z,60.43
2022-10-24T02:37:47.606Z,60.23
2022-10-24T02:40:17.145Z,60.14
2022-10-24T02:42:46.190Z,60.08
2022-10-24T02:45:15.416Z,60.04
2022-10-24T02:47:45.049Z,59.91
2022-10-24T02:50:12.768Z,59.84
2022-10-24T02:52:41.396Z,59.92
2022-10-24T02:55:08.654Z,59.54
2022-10-24T02:57:35.300Z,59.75
2022-10-24T03:00:02.195Z,59.44
2022-10-24T03:02:28.776Z,59.35
2022-10-24T03:04:55.370Z,59.35
2022-10-24T03:07:22.150Z,59.04
2022-10-24T03:09:48.832Z,59.29
2022-10-24T03:12:16.927Z,59.12
2022-10-24T03:14:45.106Z,59.30
2022-10-24T03:17:11.759Z,59.17
2022-10-24T03:19:38.620Z,59.05
2022-10-24T03:22:05.330Z,59.13
2022-10-24T03:24:43.819Z,59.17
2022-10-24T03:27:18.764Z,59.12
2022-10-24T03:29:45.370Z,59.07
2022-10-24T03:32:11.983Z,59.26
2022-10-24T03:34:38.809Z,59.02
2022-10-24T03:37:05.418Z,59.22
2022-10-24T03:39:32.008Z,59.21
2022-10-24T03:41:59.492Z,59.19
2022-10-24T03:44:26.106Z,59.07
2022-10-24T03:46:52.733Z,59.32
2022-10-24T03:49:19.363Z,59.10
2022-10-24T03:51:46.178Z,59.19
2022-10-24T03:54:15.247Z,59.07
2022-10-24T03:56:48.038Z,59.18
2022-10-24T03:59:15.401Z,58.99
2022-10-24T04:01:42.264Z,58.66
2022-10-24T04:04:08.914Z,58.76
2022-10-24T04:06:36.653Z,58.68
2022-10-24T04:09:03.996Z,58.43
2022-10-24T04:11:30.658Z,58.44
2022-10-24T04:13:57.807Z,58.04
2022-10-24T04:16:24.541Z,58.05
2022-10-24T04:18:51.427Z,57.92
2022-10-24T04:21:21.524Z,57.82
2022-10-24T04:23:48.883Z,57.79
2022-10-24T04:26:17.251Z,57.82
2022-10-24T04:28:44.659Z,57.81
2022-10-24T04:31:11.232Z,57.91
2022-10-24T04:33:38.169Z,57.86
2022-10-24T04:36:05.546Z,57.62
2022-10-24T04:38:33.624Z,57.83
2022-10-24T04:41:00.876Z,57.70
2022-10-24T04:43:27.793Z,57.87
2022-10-24T04:45:54.382Z,57.88
2022-10-24T04:48:21.111Z,57.88
2022-10-24T04:50:48.391Z,57.79
2022-10-24T04:53:15.715Z,57.77
2022-10-24T04:55:42.401Z,57.81
2022-10-24T04:58:09.266Z,57.75
2022-10-24T05:00:36.093Z,57.69
2022-10-24T05:03:03.154Z,57.62
2022-10-24T05:05:29.743Z,57.66
2022-10-24T05:07:56.394Z,57.82
2022-10-24T05:10:23.051Z,57.88
2022-10-24T05:12:49.738Z,57.92
2022-10-24T05:15:18.555Z,57.87
2022-10-24T05:17:45.214Z,57.73
2022-10-24T05:20:12.012Z,57.95
2022-10-24T05:22:38.647Z,57.90
2022-10-24T05:25:06.389Z,57.66
2022-10-24T05:27:32.966Z,57.93
2022-10-24T05:29:59.635Z,57.91
2022-10-24T05:32:26.678Z,57.79
2022-10-24T05:34:53.268Z,57.75
2022-10-24T05:37:20.198Z,57.81
2022-10-24T05:39:46.837Z,57.93
2022-10-24T05:42:13.467Z,57.97
2022-10-24T05:44:40.056Z,57.85
2022-10-24T05:47:06.954Z,57.87
2022-10-24T05:49:34.016Z,57.79
2022-10-24T05:52:00.640Z,57.85
2022-10-24T05:54:33.318Z,57.86
2022-10-24T05:57:09.441Z,57.89
2022-10-24T05:59:36.298Z,57.91
2022-10-24T06:02:03.019Z,57.56
2022-10-24T06:04:29.716Z,57.59
2022-10-24T06:06:56.367Z,57.53
2022-10-24T06:09:22.965Z,57.38
2022-10-24T06:11:49.767Z,57.40
2022-10-24T06:14:16.974Z,57.23
2022-10-24T06:16:43.589Z,57.30
2022-10-24T06:19:10.171Z,57.30
2022-10-24T06:21:36.818Z,56.97
2022-10-24T06:24:03.874Z,57.23
2022-10-24T06:26:30.462Z,57.07
2022-10-24T06:28:57.131Z,57.09
2022-10-24T06:31:25.727Z,57.04
2022-10-24T06:33:54.147Z,57.13
2022-10-24T06:36:21.289Z,57.08
2022-10-24T06:38:48.750Z,57.07
2022-10-24T06:41:17.244Z,56.98
2022-10-24T06:43:44.025Z,57.14
2022-10-24T06:46:13.598Z,56.97
2022-10-24T06:48:40.248Z,57.28
2022-10-24T06:51:07.641Z,57.21
2022-10-24T06:53:34.485Z,57.08
2022-10-24T06:56:06.455Z,57.15
2022-10-24T06:58:37.109Z,57.00
2022-10-24T07:01:19.231Z,57.06
2022-10-24T07:03:46.094Z,57.10
2022-10-24T07:08:56.907Z,57.20
2022-10-24T07:11:24.027Z,57.42
2022-10-24T07:13:50.683Z,57.28
2022-10-24T07:16:18.082Z,57.38
2022-10-24T07:18:45.627Z,57.24
2022-10-24T07:21:19.942Z,57.26
2022-10-24T07:23:46.859Z,57.23
2022-10-24T07:26:15.306Z,57.46
2022-10-24T07:28:44.598Z,57.31
2022-10-24T07:31:14.814Z,57.34
2022-10-24T07:33:41.467Z,57.33
2022-10-24T07:36:08.601Z,57.46
2022-10-24T07:38:35.358Z,57.45
2022-10-24T07:41:05.782Z,57.26
2022-10-24T07:43:32.747Z,57.43
2022-10-24T07:48:30.995Z,57.91
2022-10-24T07:50:57.652Z,57.55
2022-10-24T07:53:26.084Z,57.64
2022-10-24T07:55:54.545Z,57.53
2022-10-24T07:58:21.294Z,57.63
2022-10-24T08:00:47.926Z,57.49
2022-10-24T08:03:14.703Z,57.51
2022-10-24T08:05:42.401Z,57.29
2022-10-24T08:08:27.402Z,57.30
2022-10-24T08:10:55.990Z,57.38
2022-10-24T08:13:22.658Z,57.22
2022-10-24T08:15:49.257Z,57.28
2022-10-24T08:18:15.876Z,57.29
2022-10-24T08:20:42.458Z,57.18
2022-10-24T08:23:09.433Z,57.35
2022-10-24T08:25:40.553Z,57.56
2022-10-24T08:28:09.078Z,57.36
2022-10-24T08:30:35.960Z,57.45
2022-10-24T08:33:02.627Z,57.39
2022-10-24T08:35:29.449Z,57.41
2022-10-24T08:37:56.054Z,57.40
2022-10-24T08:40:22.723Z,57.38
2022-10-24T08:42:49.681Z,57.50
2022-10-24T08:45:36.178Z,57.41
2022-10-24T08:48:09.867Z,57.41
2022-10-24T08:50:41.754Z,57.60
2022-10-24T08:53:30.051Z,57.38
2022-10-24T08:56:00.101Z,57.57
2022-10-24T08:58:31.638Z,57.54
2022-10-24T09:01:02.459Z,57.41
2022-10-24T09:03:56.077Z,57.34
2022-10-24T09:06:26.364Z,57.22
2022-10-24T09:08:56.270Z,57.28
2022-10-24T09:11:45.470Z,57.21
2022-10-24T09:14:29.673Z,57.19
2022-10-24T09:17:29.234Z,57.01
2022-10-24T09:20:35.222Z,57.05
2022-10-24T09:23:05.832Z,56.82
2022-10-24T09:25:36.596Z,56.85
2022-10-24T09:28:05.654Z,56.85
2022-10-24T09:30:33.561Z,56.85
2022-10-24T09:33:24.402Z,56.89
2022-10-24T09:35:54.506Z,56.92
2022-10-24T09:38:33.418Z,56.90
2022-10-24T09:41:19.444Z,56.93
2022-10-24T09:43:53.368Z,56.85
2022-10-24T09:46:23.953Z,56.84
2022-10-24T09:49:22.551Z,56.89
2022-10-24T09:52:19.696Z,56.86
2022-10-24T09:54:47.324Z,56.92
2022-10-24T09:57:17.837Z,56.89
2022-10-24T10:00:00.411Z,56.88
2022-10-24T10:02:28.075Z,57.04
2022-10-24T10:05:23.983Z,57.06
2022-10-24T10:07:51.594Z,57.04
2022-10-24T10:10:34.405Z,56.98
2022-10-24T10:13:24.682Z,57.04
2022-10-24T10:16:02.753Z,57.14
2022-10-24T10:18:34.961Z,57.04
2022-10-24T10:21:06.876Z,57.04
2022-10-24T10:23:53.984Z,57.10
2022-10-24T10:26:42.713Z,57.08
2022-10-24T10:29:29.523Z,57.22
2022-10-24T10:32:24.327Z,57.30
2022-10-24T10:35:11.482Z,57.13
2022-10-24T10:37:48.456Z,57.17
2022-10-24T10:40:44.268Z,57.31
2022-10-24T10:43:35.079Z,57.14
2022-10-24T10:46:44.554Z,57.30
2022-10-24T10:49:28.069Z,57.21
2022-10-24T10:52:00.969Z,57.18
2022-10-24T10:55:29.259Z,57.12
2022-10-24T10:58:41.308Z,57.27
2022-10-24T11:01:39.349Z,57.21
2022-10-24T11:04:53.053Z,57.42
2022-10-24T11:07:51.475Z,57.35
2022-10-24T11:10:22.912Z,57.45
2022-10-24T11:12:49.605Z,57.32
2022-10-24T11:15:27.214Z,57.35
2022-10-24T11:21:21.505Z,57.39
2022-10-24T11:26:52.792Z,57.27
2022-10-24T11:29:51.266Z,57.36
2022-10-24T11:32:55.410Z,57.46
2022-10-24T11:35:37.197Z,57.47
2022-10-24T11:38:13.765Z,57.33
2022-10-24T11:40:43.747Z,57.35
2022-10-24T11:43:24.746Z,57.41
2022-10-24T11:46:31.569Z,57.50
2022-10-24T11:49:03.176Z,57.38
2022-10-24T11:51:55.256Z,57.63
2022-10-24T11:54:29.941Z,57.52
2022-10-24T11:57:02.056Z,57.53
2022-10-24T11:59:30.643Z,57.59
2022-10-24T12:03:02.871Z,57.63
2022-10-24T12:06:05.172Z,57.60
2022-10-24T12:09:18.136Z,57.62
2022-10-24T12:12:06.143Z,57.77
2022-10-24T12:15:11.893Z,57.82
2022-10-24T12:18:05.509Z,57.75
2022-10-24T12:20:33.071Z,57.69
2022-10-24T12:23:02.087Z,57.69
2022-10-24T12:25:35.669Z,57.79
2022-10-24T12:28:12.217Z,57.73
2022-10-24T12:30:39.672Z,57.93
2022-10-24T12:33:27.065Z,57.92
2022-10-24T12:35:57.315Z,57.80
2022-10-24T12:38:58.778Z,57.92
2022-10-24T12:41:39.507Z,57.90
2022-10-24T12:44:44.960Z,57.80
2022-10-24T12:47:34.890Z,57.95
2022-10-24T12:50:40.505Z,57.97
2022-10-24T12:53:19.939Z,57.95
2022-10-24T12:56:11.802Z,58.06
2022-10-24T12:58:42.687Z,57.93
2022-10-24T13:01:27.490Z,57.89
2022-10-24T13:04:29.054Z,57.92
2022-10-24T13:07:50.584Z,57.92
2022-10-24T13:10:48.017Z,57.93
2022-10-24T13:13:54.126Z,57.84
2022-10-24T13:17:00.430Z,57.86
2022-10-24T13:19:27.990Z,57.93
2022-10-24T13:21:57.297Z,58.00
2022-10-24T13:24:35.567Z,58.00
2022-10-24T13:27:30.156Z,57.92
2022-10-24T13:30:03.445Z,57.95
2022-10-24T13:32:36.001Z,57.93
2022-10-24T13:35:05.703Z,57.98
2022-10-24T13:37:40.753Z,58.04
2022-10-24T13:40:33.255Z,57.97
2022-10-24T13:43:07.532Z,57.90
2022-10-24T13:46:13.120Z,57.94
2022-10-24T13:48:48.102Z,57.98
2022-10-24T13:51:25.706Z,58.03
2022-10-24T13:54:04.019Z,58.05
2022-10-24T13:56:37.476Z,58.35
2022-10-24T13:59:04.171Z,58.12
2022-10-24T14:01:31.462Z,57.87
2022-10-24T14:04:00.667Z,58.26
2022-10-24T14:06:36.152Z,58.24
2022-10-24T14:09:10.254Z,58.18
2022-10-24T14:11:43.873Z,58.21
2022-10-24T14:14:32.343Z,58.08
2022-10-24T14:17:23.881Z,58.25
2022-10-24T14:19:55.476Z,58.17
2022-10-24T14:22:27.866Z,58.13
2022-10-24T14:24:54.614Z,58.24
2022-10-24T14:27:21.646Z,58.29
2022-10-24T14:29:58.901Z,58.29
2022-10-24T14:32:28.058Z,58.20
2022-10-24T14:34:57.251Z,58.18
2022-10-24T14:37:30.589Z,58.31
2022-10-24T14:39:57.890Z,58.12
2022-10-24T14:42:25.654Z,58.23
2022-10-24T14:44:57.480Z,58.32
2022-10-24T14:47:34.418Z,58.35
2022-10-24T14:50:01.068Z,58.11
2022-10-24T14:52:37.266Z,58.27
2022-10-24T14:55:24.751Z,58.40
2022-10-24T14:57:52.896Z,58.41
2022-10-24T15:00:22.784Z,58.42
2022-10-24T15:02:51.785Z,58.33
2022-10-24T15:05:36.434Z,58.24
2022-10-24T15:08:39.598Z,58.38
2022-10-24T15:11:35.771Z,58.42
2022-10-24T15:14:07.054Z,58.31
2022-10-24T15:16:40.734Z,58.19
2022-10-24T15:19:14.731Z,58.10
2022-10-24T15:21:44.073Z,58.08
2022-10-24T15:24:25.228Z,57.98
2022-10-24T15:26:51.951Z,57.82
2022-10-24T15:29:23.149Z,57.85
2022-10-24T15:31:51.943Z,57.75
2022-10-24T15:34:23.872Z,57.83
2022-10-24T15:36:52.702Z,57.83
2022-10-24T15:39:22.344Z,57.83
2022-10-24T15:41:49.391Z,57.93
2022-10-24T15:44:19.335Z,57.93
2022-10-24T15:46:46.672Z,57.99
2022-10-24T15:49:14.204Z,58.03
2022-10-24T15:51:45.950Z,57.91
2022-10-24T15:54:17.478Z,57.91
2022-10-24T15:56:44.054Z,58.02
2022-10-24T15:59:10.614Z,58.11
2022-10-24T16:01:44.488Z,58.17
2022-10-24T16:04:11.543Z,58.17
2022-10-24T16:06:38.114Z,57.98
2022-10-24T16:09:16.090Z,58.37
2022-10-24T16:11:42.926Z,58.18
2022-10-24T16:14:17.620Z,58.45
2022-10-24T16:16:44.961Z,58.55
2022-10-24T16:19:11.768Z,58.17
2022-10-24T16:21:40.001Z,58.47
2022-10-24T16:24:07.734Z,58.44
2022-10-24T16:26:35.076Z,58.50
2022-10-24T16:29:01.662Z,58.43
2022-10-24T16:31:28.247Z,58.54
2022-10-24T16:33:54.833Z,58.42
2022-10-24T16:36:24.601Z,58.40
2022-10-24T16:38:51.864Z,58.47
2022-10-24T16:41:24.005Z,58.46
2022-10-24T16:43:53.680Z,58.42
2022-10-24T16:46:21.401Z,58.33
2022-10-24T16:48:48.995Z,58.62
2022-10-24T16:51:19.454Z,58.74
2022-10-24T16:53:46.102Z,58.79
2022-10-24T16:56:14.176Z,58.59
2022-10-24T16:58:41.209Z,58.67
2022-10-24T17:01:11.003Z,58.54
2022-10-24T17:03:38.510Z,58.64
2022-10-24T17:06:05.854Z,58.59
2022-10-24T17:08:32.785Z,58.66
2022-10-24T17:11:00.958Z,58.50
2022-10-24T17:13:29.026Z,58.66
2022-10-24T17:15:58.874Z,58.65
2022-10-24T17:18:26.739Z,58.78
2022-10-24T17:21:00.150Z,58.76
2022-10-24T17:23:27.822Z,58.69
2022-10-24T17:25:55.585Z,58.92
2022-10-24T17:28:22.543Z,58.81
2022-10-24T17:30:49.346Z,58.69
2022-10-24T17:33:16.277Z,58.90
2022-10-24T17:35:51.326Z,58.81
2022-10-24T17:38:42.300Z,58.57
2022-10-24T17:41:28.729Z,58.66
2022-10-24T17:43:55.674Z,58.60
2022-10-24T17:46:22.737Z,58.68
2022-10-24T17:48:50.611Z,58.63
2022-10-24T17:51:22.419Z,58.69
2022-10-24T17:53:49.422Z,58.63
2022-10-24T17:56:17.588Z,58.67
2022-10-24T17:58:51.053Z,58.67
2022-10-24T18:01:17.880Z,58.77
2022-10-24T18:03:44.787Z,58.88
2022-10-24T18:06:12.667Z,58.78
2022-10-24T18:08:39.296Z,58.84
2022-10-24T18:11:09.062Z,58.78
2022-10-24T18:13:37.259Z,58.86
2022-10-24T18:16:11.989Z,58.75
2022-10-24T18:18:42.827Z,59.02
2022-10-24T18:21:21.584Z,58.82
2022-10-24T18:23:48.756Z,58.96
2022-10-24T18:26:20.838Z,58.92
2022-10-24T18:28:49.875Z,58.78
2022-10-24T18:31:19.765Z,58.95
2022-10-24T18:33:46.849Z,58.89
2022-10-24T18:36:19.353Z,58.90
2022-10-24T18:38:46.123Z,58.95
2022-10-24T18:42:09.926Z,59.05
2022-10-24T18:44:37.798Z,58.99
2022-10-24T18:47:06.977Z,58.96
2022-10-24T18:49:35.165Z,59.39
2022-10-24T18:52:17.833Z,59.13
2022-10-24T18:54:58.488Z,59.01
2022-10-24T18:57:31.297Z,59.14
2022-10-24T18:59:58.463Z,58.95
2022-10-24T19:03:14.574Z,59.08
2022-10-24T19:05:47.797Z,59.14
2022-10-24T19:08:24.179Z,59.31
2022-10-24T19:10:52.871Z,59.31
2022-10-24T19:13:19.520Z,59.29
2022-10-24T19:15:52.651Z,59.11
2022-10-24T19:18:19.624Z,59.36
2022-10-24T19:20:46.277Z,59.38
2022-10-24T19:23:14.672Z,59.38
2022-10-24T19:25:41.562Z,59.62
2022-10-24T19:28:11.036Z,59.55
2022-10-24T19:30:40.810Z,59.41
2022-10-24T19:33:07.586Z,59.47
2022-10-24T19:35:36.879Z,59.49
2022-10-24T19:38:03.566Z,59.59
2022-10-24T19:40:30.181Z,59.69
2022-10-24T19:42:57.580Z,59.46
2022-10-24T19:45:25.364Z,59.45
2022-10-24T19:47:55.794Z,59.50
2022-10-24T19:50:22.626Z,59.63
2022-10-24T19:52:49.195Z,59.48
2022-10-24T19:55:16.030Z,59.68
2022-10-24T19:57:42.744Z,59.82
2022-10-24T20:00:10.260Z,59.70
2022-10-24T20:02:36.830Z,59.89
2022-10-24T20:05:03.527Z,59.75
2022-10-24T20:07:30.371Z,59.78
2022-10-24T20:09:57.130Z,59.86
2022-10-24T20:12:23.798Z,59.78
2022-10-24T20:14:50.702Z,59.78
2022-10-24T20:17:17.281Z,59.61
2022-10-24T20:19:44.046Z,59.61
2022-10-24T20:22:10.691Z,59.45
2022-10-24T20:24:37.322Z,59.34
2022-10-24T20:27:04.096Z,59.25
2022-10-24T20:29:30.686Z,59.44
2022-10-24T20:31:57.493Z,59.42
2022-10-24T20:34:24.262Z,59.22
2022-10-24T20:36:50.876Z,59.33
2022-10-24T20:39:20.913Z,59.22
2022-10-24T20:41:51.764Z,59.19
2022-10-24T20:44:20.887Z,59.05
2022-10-24T20:46:47.665Z,59.04
2022-10-24T20:49:14.241Z,59.37
2022-10-24T20:51:42.430Z,59.45
2022-10-24T20:54:10.352Z,59.39
2022-10-24T20:56:42.050Z,59.45
2022-10-24T20:59:11.996Z,59.35
2022-10-24T21:01:38.651Z,59.60
2022-10-24T21:04:05.409Z,59.82
2022-10-24T21:06:33.994Z,59.65
2022-10-24T21:11:35.549Z,59.69
2022-10-24T21:14:05.139Z,59.68
2022-10-24T21:16:32.477Z,59.82
2022-10-24T21:19:00.038Z,59.77
2022-10-24T21:21:27.109Z,59.70
2022-10-24T21:23:55.929Z,59.86
2022-10-24T21:26:23.258Z,59.86
2022-10-24T21:28:59.328Z,59.74
2022-10-24T21:31:35.426Z,59.81
2022-10-24T21:34:02.355Z,59.69
2022-10-24T21:36:28.978Z,59.85
2022-10-24T21:38:59.762Z,60.04
2022-10-24T21:41:27.739Z,59.87
2022-10-24T21:43:55.144Z,59.85
2022-10-24T21:46:24.167Z,59.99
2022-10-24T21:48:52.156Z,60.14
2022-10-24T21:51:30.153Z,59.80
2022-10-24T21:54:13.753Z,59.93
2022-10-24T21:56:40.590Z,60.03
2022-10-24T21:59:11.701Z,59.98
2022-10-24T22:01:39.007Z,60.08
2022-10-24T22:04:06.948Z,59.92
2022-10-24T22:06:35.217Z,59.99
2022-10-24T22:09:02.805Z,60.09
2022-10-24T22:11:31.275Z,60.07
2022-10-24T22:13:58.842Z,59.89
2022-10-24T22:16:28.022Z,60.02
2022-10-24T22:18:55.167Z,59.97
2022-10-24T22:21:33.684Z,59.96
2022-10-24T22:24:09.467Z,59.93
2022-10-24T22:26:36.784Z,60.09
2022-10-24T22:29:05.314Z,60.18
2022-10-24T22:31:32.286Z,59.99
2022-10-24T22:33:59.072Z,59.89
2022-10-24T22:37:08.950Z,59.94
2022-10-24T22:39:36.026Z,59.97
2022-10-24T22:42:03.050Z,60.15
2022-10-24T22:44:30.191Z,59.80
2022-10-24T22:47:24.100Z,59.94
2022-10-24T22:50:31.442Z,59.98
2022-10-24T22:52:58.601Z,60.01
2022-10-24T22:55:32.847Z,60.15
2022-10-24T22:57:59.981Z,60.05
2022-10-24T23:00:27.191Z,60.13
2022-10-24T23:03:01.874Z,60.17
2022-10-24T23:06:00.055Z,60.01
2022-10-24T23:08:37.709Z,60.17
2022-10-24T23:11:04.792Z,60.06
2022-10-24T23:13:31.991Z,60.10
2022-10-24T23:16:53.014Z,60.01
2022-10-24T23:19:30.632Z,60.03
2022-10-24T23:22:07.255Z,60.12
2022-10-24T23:24:34.210Z,60.24
2022-10-24T23:27:18.531Z,60.19
2022-10-24T23:29:46.724Z,60.25
2022-10-24T23:32:24.133Z,60.20
2022-10-24T23:34:51.799Z,60.23
2022-10-24T23:37:33.451Z,60.24
2022-10-24T23:40:02.158Z,60.24
2022-10-24T23:42:29.214Z,60.38
2022-10-24T23:44:56.290Z,60.16
2022-10-24T23:47:42.773Z,60.34
2022-10-24T23:50:40.375Z,60.33
2022-10-24T23:53:20.735Z,60.34
2022-10-24T23:55:47.857Z,60.14
2022-10-24T23:58:14.908Z,60.25
